メインページ
METAR-TAF:

METAR-TAF

空港 :

マイノット, ノースダコタ州, アメリカ合衆国

緯度: 48-15-34N, 経度: 101-16-49W, 海抜: 523m

現時点の気象観測

当レポートは14分前の03:54(UTC)に作成
南東の風 8kt
気温 -11°C
湿度 85%
気圧 1009 hPa
視程: 8.0km
高度900ftの雲は散在している
高度4200ftの千切れ雲あり
高度7000ftの曇り
小雪, 靄

METAR: KMOT 130354Z 13008KT 5SM -SN BR SCT009 BKN042 OVC070 M11/M13 A2981 RMK AO2 SNB49 SLP135 P0000 T11111133

時間: 22:08 (04:08 UTC)

予報

当レポートは37分前の03:31(UTC)に作成
予報は13日の 04時(UTC)から 13日の 24時(UTC)まで有効
東/南東の風 8kt
視程: 3.2km
高度1200ftの曇り
小雪
13日の 0600時(UTC)から
東/南東の風 8kt
視程: 10km
高度1300ftの曇り
近辺でにわか雨
13日の 1200時(UTC)から
北西の風 14kt
視程: 10km
高度1000ftの曇り

TAF: KMOT 130331Z 1304/1324 12008KT 2SM -SN OVC012 FM130600 12008KT P6SM VCSH OVC013 FM131200 32014KT P6SM OVC010

4,000以上の空港の気象観測と天気予報(METAR報とTAF報)

利用可能な観測所は地図上に黄色い丸と赤い丸で示す。

丸の上にカーソルを重ねると観測所名を参照できる。

次にクリックすると気象観測と天気予報を参照できる。

マップの切り替え:黒色「×」印の緑ボタンをクリックして拡大、「-」印の緑ボタンをクリックして縮小、緑色の三角印をクリックして隣りの地図に切り替え


METAR-TAF: